sensor_id;sensor_type;location;lat;lon;timestamp;P1;durP1;ratioP1;P2;durP2;ratioP2
14167;SDS011;7163;50.626;12.922;2022-11-20T00:03:21;25.27;;;10.10;;
14167;SDS011;7163;50.626;12.922;2022-11-20T00:08:22;15.90;;;8.07;;
14167;SDS011;7163;50.626;12.922;2022-11-20T00:13:22;19.67;;;9.57;;
14167;SDS011;7163;50.626;12.922;2022-11-20T00:18:23;12.00;;;7.77;;
14167;SDS011;7163;50.626;12.922;2022-11-20T00:23:24;8.77;;;6.10;;
14167;SDS011;7163;50.626;12.922;2022-11-20T00:28:24;11.37;;;6.77;;
14167;SDS011;7163;50.626;12.922;2022-11-20T00:33:25;10.03;;;6.40;;
14167;SDS011;7163;50.626;12.922;2022-11-20T00:38:25;9.23;;;6.53;;
14167;SDS011;7163;50.626;12.922;2022-11-20T00:43:28;8.57;;;5.93;;
14167;SDS011;7163;50.626;12.922;2022-11-20T00:48:29;9.90;;;6.30;;
14167;SDS011;7163;50.626;12.922;2022-11-20T00:53:29;7.83;;;6.27;;
14167;SDS011;7163;50.626;12.922;2022-11-20T00:58:33;11.27;;;6.53;;
14167;SDS011;7163;50.626;12.922;2022-11-20T01:03:36;16.30;;;8.30;;
14167;SDS011;7163;50.626;12.922;2022-11-20T01:08:38;15.27;;;8.37;;
14167;SDS011;7163;50.626;12.922;2022-11-20T01:13:39;10.17;;;7.63;;
14167;SDS011;7163;50.626;12.922;2022-11-20T01:18:41;10.93;;;7.27;;
14167;SDS011;7163;50.626;12.922;2022-11-20T01:23:43;11.80;;;7.07;;
14167;SDS011;7163;50.626;12.922;2022-11-20T01:28:44;14.90;;;7.73;;
14167;SDS011;7163;50.626;12.922;2022-11-20T01:33:45;12.03;;;7.20;;
14167;SDS011;7163;50.626;12.922;2022-11-20T01:38:47;9.10;;;6.53;;
14167;SDS011;7163;50.626;12.922;2022-11-20T01:43:48;8.67;;;7.07;;
14167;SDS011;7163;50.626;12.922;2022-11-20T01:53:54;11.30;;;7.47;;
14167;SDS011;7163;50.626;12.922;2022-11-20T01:58:56;12.60;;;8.30;;
14167;SDS011;7163;50.626;12.922;2022-11-20T02:03:58;13.63;;;6.70;;
14167;SDS011;7163;50.626;12.922;2022-11-20T02:09:00;12.13;;;7.23;;
14167;SDS011;7163;50.626;12.922;2022-11-20T02:14:00;15.07;;;8.63;;
14167;SDS011;7163;50.626;12.922;2022-11-20T02:19:01;13.20;;;7.43;;
14167;SDS011;7163;50.626;12.922;2022-11-20T02:29:04;7.57;;;6.33;;
14167;SDS011;7163;50.626;12.922;2022-11-20T02:34:04;9.87;;;6.23;;
14167;SDS011;7163;50.626;12.922;2022-11-20T02:39:05;13.60;;;6.60;;
14167;SDS011;7163;50.626;12.922;2022-11-20T02:44:05;10.00;;;7.27;;
14167;SDS011;7163;50.626;12.922;2022-11-20T02:49:06;14.17;;;7.93;;
14167;SDS011;7163;50.626;12.922;2022-11-20T02:54:06;13.13;;;7.90;;
14167;SDS011;7163;50.626;12.922;2022-11-20T02:59:07;6.37;;;5.77;;
14167;SDS011;7163;50.626;12.922;2022-11-20T03:04:07;6.53;;;5.80;;
14167;SDS011;7163;50.626;12.922;2022-11-20T03:09:12;6.47;;;5.70;;
14167;SDS011;7163;50.626;12.922;2022-11-20T03:14:17;8.03;;;6.13;;
14167;SDS011;7163;50.626;12.922;2022-11-20T03:19:23;7.60;;;5.40;;
14167;SDS011;7163;50.626;12.922;2022-11-20T03:24:24;9.73;;;6.17;;
14167;SDS011;7163;50.626;12.922;2022-11-20T03:29:24;7.23;;;5.67;;
14167;SDS011;7163;50.626;12.922;2022-11-20T03:34:25;6.53;;;5.27;;
14167;SDS011;7163;50.626;12.922;2022-11-20T03:39:25;8.33;;;5.80;;
14167;SDS011;7163;50.626;12.922;2022-11-20T03:44:26;6.63;;;5.33;;
14167;SDS011;7163;50.626;12.922;2022-11-20T03:49:26;8.43;;;6.20;;
14167;SDS011;7163;50.626;12.922;2022-11-20T03:54:27;8.43;;;6.10;;
14167;SDS011;7163;50.626;12.922;2022-11-20T03:59:27;8.10;;;6.03;;
14167;SDS011;7163;50.626;12.922;2022-11-20T04:04:28;5.57;;;5.00;;
14167;SDS011;7163;50.626;12.922;2022-11-20T04:09:28;6.80;;;5.53;;
14167;SDS011;7163;50.626;12.922;2022-11-20T04:14:28;6.87;;;6.10;;
14167;SDS011;7163;50.626;12.922;2022-11-20T04:19:29;7.50;;;5.57;;
14167;SDS011;7163;50.626;12.922;2022-11-20T04:24:29;12.00;;;6.50;;
14167;SDS011;7163;50.626;12.922;2022-11-20T04:29:29;12.70;;;6.80;;
14167;SDS011;7163;50.626;12.922;2022-11-20T04:34:30;9.10;;;6.47;;
14167;SDS011;7163;50.626;12.922;2022-11-20T04:39:30;10.00;;;5.87;;
14167;SDS011;7163;50.626;12.922;2022-11-20T04:44:30;7.93;;;5.70;;
14167;SDS011;7163;50.626;12.922;2022-11-20T04:49:31;8.80;;;6.07;;
14167;SDS011;7163;50.626;12.922;2022-11-20T04:54:32;17.17;;;8.47;;
14167;SDS011;7163;50.626;12.922;2022-11-20T04:59:33;21.67;;;8.30;;
14167;SDS011;7163;50.626;12.922;2022-11-20T05:04:33;14.43;;;7.30;;
14167;SDS011;7163;50.626;12.922;2022-11-20T05:09:33;13.30;;;6.97;;
14167;SDS011;7163;50.626;12.922;2022-11-20T05:14:34;12.43;;;7.47;;
14167;SDS011;7163;50.626;12.922;2022-11-20T05:19:34;13.77;;;7.60;;
14167;SDS011;7163;50.626;12.922;2022-11-20T05:24:35;13.00;;;6.97;;
14167;SDS011;7163;50.626;12.922;2022-11-20T05:29:38;11.87;;;7.03;;
14167;SDS011;7163;50.626;12.922;2022-11-20T05:34:38;11.30;;;7.30;;
14167;SDS011;7163;50.626;12.922;2022-11-20T05:39:39;12.40;;;7.37;;
14167;SDS011;7163;50.626;12.922;2022-11-20T05:44:39;13.77;;;6.67;;
14167;SDS011;7163;50.626;12.922;2022-11-20T05:49:40;15.13;;;8.27;;
14167;SDS011;7163;50.626;12.922;2022-11-20T05:54:40;10.20;;;7.20;;
14167;SDS011;7163;50.626;12.922;2022-11-20T05:59:40;9.87;;;6.87;;
14167;SDS011;7163;50.626;12.922;2022-11-20T06:04:41;10.93;;;7.57;;
14167;SDS011;7163;50.626;12.922;2022-11-20T06:09:41;7.30;;;6.43;;
14167;SDS011;7163;50.626;12.922;2022-11-20T06:14:42;8.67;;;6.20;;
14167;SDS011;7163;50.626;12.922;2022-11-20T06:19:42;8.03;;;6.47;;
14167;SDS011;7163;50.626;12.922;2022-11-20T06:24:42;12.63;;;8.13;;
14167;SDS011;7163;50.626;12.922;2022-11-20T06:29:43;10.23;;;6.83;;
14167;SDS011;7163;50.626;12.922;2022-11-20T06:34:43;18.17;;;10.20;;
14167;SDS011;7163;50.626;12.922;2022-11-20T06:39:44;134.70;;;48.30;;
14167;SDS011;7163;50.626;12.922;2022-11-20T06:44:44;15.70;;;9.00;;
14167;SDS011;7163;50.626;12.922;2022-11-20T06:49:45;17.33;;;10.47;;
14167;SDS011;7163;50.626;12.922;2022-11-20T06:54:45;14.60;;;9.17;;
14167;SDS011;7163;50.626;12.922;2022-11-20T06:59:46;12.03;;;8.30;;
14167;SDS011;7163;50.626;12.922;2022-11-20T07:04:46;15.33;;;8.20;;
14167;SDS011;7163;50.626;12.922;2022-11-20T07:09:47;16.13;;;9.00;;
14167;SDS011;7163;50.626;12.922;2022-11-20T07:14:47;21.73;;;11.83;;
14167;SDS011;7163;50.626;12.922;2022-11-20T07:19:48;14.47;;;8.57;;
14167;SDS011;7163;50.626;12.922;2022-11-20T07:24:48;18.57;;;10.27;;
14167;SDS011;7163;50.626;12.922;2022-11-20T07:29:49;28.30;;;14.13;;
14167;SDS011;7163;50.626;12.922;2022-11-20T07:34:49;38.10;;;18.40;;
14167;SDS011;7163;50.626;12.922;2022-11-20T07:39:49;58.47;;;23.07;;
14167;SDS011;7163;50.626;12.922;2022-11-20T07:44:50;53.40;;;24.07;;
14167;SDS011;7163;50.626;12.922;2022-11-20T07:49:50;60.20;;;28.23;;
14167;SDS011;7163;50.626;12.922;2022-11-20T07:54:54;53.97;;;24.60;;
14167;SDS011;7163;50.626;12.922;2022-11-20T07:59:54;51.57;;;23.67;;
14167;SDS011;7163;50.626;12.922;2022-11-20T08:04:55;23.40;;;12.20;;
14167;SDS011;7163;50.626;12.922;2022-11-20T08:09:55;19.17;;;10.43;;
14167;SDS011;7163;50.626;12.922;2022-11-20T08:14:56;15.73;;;8.93;;
14167;SDS011;7163;50.626;12.922;2022-11-20T08:19:58;61.00;;;24.30;;
14167;SDS011;7163;50.626;12.922;2022-11-20T08:24:59;43.90;;;26.67;;
14167;SDS011;7163;50.626;12.922;2022-11-20T08:29:59;30.27;;;18.53;;
14167;SDS011;7163;50.626;12.922;2022-11-20T08:35:00;31.57;;;15.57;;
14167;SDS011;7163;50.626;12.922;2022-11-20T08:40:00;31.50;;;16.70;;
14167;SDS011;7163;50.626;12.922;2022-11-20T08:45:00;54.37;;;24.17;;
14167;SDS011;7163;50.626;12.922;2022-11-20T08:50:01;59.97;;;28.13;;
14167;SDS011;7163;50.626;12.922;2022-11-20T08:55:01;18.13;;;10.60;;
14167;SDS011;7163;50.626;12.922;2022-11-20T09:00:05;29.37;;;16.00;;
14167;SDS011;7163;50.626;12.922;2022-11-20T09:05:07;14.87;;;8.60;;
14167;SDS011;7163;50.626;12.922;2022-11-20T09:10:07;15.10;;;8.63;;
14167;SDS011;7163;50.626;12.922;2022-11-20T09:20:28;22.30;;;12.50;;
14167;SDS011;7163;50.626;12.922;2022-11-20T09:25:29;26.73;;;18.53;;
14167;SDS011;7163;50.626;12.922;2022-11-20T09:30:30;23.80;;;14.90;;
14167;SDS011;7163;50.626;12.922;2022-11-20T09:35:31;12.53;;;6.77;;
14167;SDS011;7163;50.626;12.922;2022-11-20T09:40:32;25.13;;;17.00;;
14167;SDS011;7163;50.626;12.922;2022-11-20T09:56:10;12.73;;;7.00;;
14167;SDS011;7163;50.626;12.922;2022-11-20T10:01:12;12.40;;;7.87;;
14167;SDS011;7163;50.626;12.922;2022-11-20T10:06:15;12.30;;;7.67;;
14167;SDS011;7163;50.626;12.922;2022-11-20T10:22:17;16.17;;;8.33;;
14167;SDS011;7163;50.626;12.922;2022-11-20T10:32:33;18.10;;;10.57;;
14167;SDS011;7163;50.626;12.922;2022-11-20T10:37:46;20.87;;;11.57;;
14167;SDS011;7163;50.626;12.922;2022-11-20T10:42:51;22.23;;;11.87;;
14167;SDS011;7163;50.626;12.922;2022-11-20T10:48:15;21.67;;;11.53;;
14167;SDS011;7163;50.626;12.922;2022-11-20T10:53:42;24.70;;;12.10;;
14167;SDS011;7163;50.626;12.922;2022-11-20T10:59:38;21.47;;;12.50;;
14167;SDS011;7163;50.626;12.922;2022-11-20T11:04:46;24.47;;;12.43;;
14167;SDS011;7163;50.626;12.922;2022-11-20T11:09:49;25.53;;;15.07;;
14167;SDS011;7163;50.626;12.922;2022-11-20T11:14:52;31.30;;;16.00;;
14167;SDS011;7163;50.626;12.922;2022-11-20T11:20:14;26.90;;;15.13;;
14167;SDS011;7163;50.626;12.922;2022-11-20T11:30:24;27.50;;;14.90;;
14167;SDS011;7163;50.626;12.922;2022-11-20T11:35:28;35.07;;;17.73;;
14167;SDS011;7163;50.626;12.922;2022-11-20T11:40:32;30.40;;;17.50;;
14167;SDS011;7163;50.626;12.922;2022-11-20T11:45:34;34.33;;;17.07;;
14167;SDS011;7163;50.626;12.922;2022-11-20T11:50:34;34.07;;;16.47;;
14167;SDS011;7163;50.626;12.922;2022-11-20T12:00:36;38.80;;;19.77;;
14167;SDS011;7163;50.626;12.922;2022-11-20T12:05:42;34.50;;;18.53;;
14167;SDS011;7163;50.626;12.922;2022-11-20T12:10:49;39.23;;;18.57;;
14167;SDS011;7163;50.626;12.922;2022-11-20T12:15:51;39.90;;;18.03;;
14167;SDS011;7163;50.626;12.922;2022-11-20T12:26:52;32.57;;;16.63;;
14167;SDS011;7163;50.626;12.922;2022-11-20T12:48:13;42.97;;;18.80;;
14167;SDS011;7163;50.626;12.922;2022-11-20T12:53:26;39.67;;;18.57;;
14167;SDS011;7163;50.626;12.922;2022-11-20T13:03:58;40.23;;;18.20;;
14167;SDS011;7163;50.626;12.922;2022-11-20T13:09:00;41.07;;;18.13;;
14167;SDS011;7163;50.626;12.922;2022-11-20T13:19:03;48.10;;;19.83;;
14167;SDS011;7163;50.626;12.922;2022-11-20T13:24:19;50.87;;;20.63;;
14167;SDS011;7163;50.626;12.922;2022-11-20T13:29:23;45.77;;;22.17;;
14167;SDS011;7163;50.626;12.922;2022-11-20T13:34:24;37.93;;;18.27;;
14167;SDS011;7163;50.626;12.922;2022-11-20T13:44:42;31.43;;;15.77;;
14167;SDS011;7163;50.626;12.922;2022-11-20T13:49:43;32.87;;;17.10;;
14167;SDS011;7163;50.626;12.922;2022-11-20T13:54:56;35.07;;;18.10;;
14167;SDS011;7163;50.626;12.922;2022-11-20T14:00:13;41.63;;;19.13;;
14167;SDS011;7163;50.626;12.922;2022-11-20T14:05:20;38.03;;;18.77;;
14167;SDS011;7163;50.626;12.922;2022-11-20T14:10:24;32.70;;;16.70;;
14167;SDS011;7163;50.626;12.922;2022-11-20T14:15:30;37.17;;;16.70;;
14167;SDS011;7163;50.626;12.922;2022-11-20T14:20:33;29.83;;;14.47;;
14167;SDS011;7163;50.626;12.922;2022-11-20T14:25:33;25.50;;;13.97;;
14167;SDS011;7163;50.626;12.922;2022-11-20T14:35:45;26.23;;;13.17;;
14167;SDS011;7163;50.626;12.922;2022-11-20T14:40:50;24.27;;;12.90;;
14167;SDS011;7163;50.626;12.922;2022-11-20T14:45:55;25.00;;;13.73;;
14167;SDS011;7163;50.626;12.922;2022-11-20T14:50:58;30.53;;;15.53;;
14167;SDS011;7163;50.626;12.922;2022-11-20T14:55:59;30.53;;;14.07;;
14167;SDS011;7163;50.626;12.922;2022-11-20T15:01:06;28.67;;;12.83;;
14167;SDS011;7163;50.626;12.922;2022-11-20T15:06:09;24.60;;;13.17;;
14167;SDS011;7163;50.626;12.922;2022-11-20T15:11:17;29.60;;;14.20;;
14167;SDS011;7163;50.626;12.922;2022-11-20T15:16:20;28.23;;;15.23;;
14167;SDS011;7163;50.626;12.922;2022-11-20T15:21:21;34.00;;;17.37;;
14167;SDS011;7163;50.626;12.922;2022-11-20T15:26:26;29.33;;;15.63;;
14167;SDS011;7163;50.626;12.922;2022-11-20T15:31:27;39.27;;;22.83;;
14167;SDS011;7163;50.626;12.922;2022-11-20T15:36:27;26.60;;;15.77;;
14167;SDS011;7163;50.626;12.922;2022-11-20T15:41:28;28.40;;;16.27;;
14167;SDS011;7163;50.626;12.922;2022-11-20T15:46:29;29.77;;;16.03;;
14167;SDS011;7163;50.626;12.922;2022-11-20T15:51:48;25.23;;;13.43;;
14167;SDS011;7163;50.626;12.922;2022-11-20T15:56:49;25.03;;;13.80;;
14167;SDS011;7163;50.626;12.922;2022-11-20T16:01:53;27.77;;;14.93;;
14167;SDS011;7163;50.626;12.922;2022-11-20T16:06:53;21.43;;;12.57;;
14167;SDS011;7163;50.626;12.922;2022-11-20T16:11:54;26.63;;;13.77;;
14167;SDS011;7163;50.626;12.922;2022-11-20T16:16:54;26.83;;;13.80;;
14167;SDS011;7163;50.626;12.922;2022-11-20T16:21:56;27.53;;;14.17;;
14167;SDS011;7163;50.626;12.922;2022-11-20T16:26:57;26.00;;;14.13;;
14167;SDS011;7163;50.626;12.922;2022-11-20T16:31:58;24.53;;;14.30;;
14167;SDS011;7163;50.626;12.922;2022-11-20T16:36:58;24.93;;;14.03;;
14167;SDS011;7163;50.626;12.922;2022-11-20T16:42:01;28.87;;;15.60;;
14167;SDS011;7163;50.626;12.922;2022-11-20T16:47:06;25.80;;;13.83;;
14167;SDS011;7163;50.626;12.922;2022-11-20T16:52:07;23.37;;;13.57;;
14167;SDS011;7163;50.626;12.922;2022-11-20T16:57:08;20.97;;;12.67;;
14167;SDS011;7163;50.626;12.922;2022-11-20T17:02:09;26.83;;;13.93;;
14167;SDS011;7163;50.626;12.922;2022-11-20T17:07:09;24.00;;;12.70;;
14167;SDS011;7163;50.626;12.922;2022-11-20T17:12:11;21.43;;;12.10;;
14167;SDS011;7163;50.626;12.922;2022-11-20T17:17:11;24.63;;;13.33;;
14167;SDS011;7163;50.626;12.922;2022-11-20T17:22:12;26.47;;;12.47;;
14167;SDS011;7163;50.626;12.922;2022-11-20T17:27:12;28.40;;;12.83;;
14167;SDS011;7163;50.626;12.922;2022-11-20T17:32:13;63.73;;;26.27;;
14167;SDS011;7163;50.626;12.922;2022-11-20T17:37:13;32.40;;;16.00;;
14167;SDS011;7163;50.626;12.922;2022-11-20T17:42:13;29.20;;;14.23;;
14167;SDS011;7163;50.626;12.922;2022-11-20T17:47:25;25.27;;;13.13;;
14167;SDS011;7163;50.626;12.922;2022-11-20T17:52:26;23.63;;;12.60;;
14167;SDS011;7163;50.626;12.922;2022-11-20T17:57:26;21.37;;;11.23;;
14167;SDS011;7163;50.626;12.922;2022-11-20T18:02:45;22.07;;;11.10;;
14167;SDS011;7163;50.626;12.922;2022-11-20T18:07:45;22.73;;;11.60;;
14167;SDS011;7163;50.626;12.922;2022-11-20T18:12:46;24.40;;;13.20;;
14167;SDS011;7163;50.626;12.922;2022-11-20T18:17:47;27.73;;;14.83;;
14167;SDS011;7163;50.626;12.922;2022-11-20T18:22:47;29.43;;;15.47;;
14167;SDS011;7163;50.626;12.922;2022-11-20T18:27:47;29.00;;;15.63;;
14167;SDS011;7163;50.626;12.922;2022-11-20T18:32:48;28.23;;;14.80;;
14167;SDS011;7163;50.626;12.922;2022-11-20T18:37:49;32.40;;;14.47;;
14167;SDS011;7163;50.626;12.922;2022-11-20T18:42:49;29.23;;;13.93;;
14167;SDS011;7163;50.626;12.922;2022-11-20T18:48:08;25.13;;;12.50;;
14167;SDS011;7163;50.626;12.922;2022-11-20T18:53:08;29.73;;;14.50;;
14167;SDS011;7163;50.626;12.922;2022-11-20T18:58:09;30.20;;;14.97;;
14167;SDS011;7163;50.626;12.922;2022-11-20T19:03:09;21.63;;;12.13;;
14167;SDS011;7163;50.626;12.922;2022-11-20T19:08:09;20.27;;;11.87;;
14167;SDS011;7163;50.626;12.922;2022-11-20T19:13:10;47.83;;;23.83;;
14167;SDS011;7163;50.626;12.922;2022-11-20T19:18:10;55.33;;;24.13;;
14167;SDS011;7163;50.626;12.922;2022-11-20T19:23:11;63.83;;;31.30;;
14167;SDS011;7163;50.626;12.922;2022-11-20T19:28:12;58.47;;;29.27;;
14167;SDS011;7163;50.626;12.922;2022-11-20T19:33:12;41.57;;;21.43;;
14167;SDS011;7163;50.626;12.922;2022-11-20T19:38:13;98.97;;;42.00;;
14167;SDS011;7163;50.626;12.922;2022-11-20T19:43:13;41.07;;;20.23;;
14167;SDS011;7163;50.626;12.922;2022-11-20T19:48:14;34.60;;;17.33;;
14167;SDS011;7163;50.626;12.922;2022-11-20T19:53:14;31.03;;;15.60;;
14167;SDS011;7163;50.626;12.922;2022-11-20T19:58:15;26.47;;;13.07;;
14167;SDS011;7163;50.626;12.922;2022-11-20T20:03:16;32.90;;;18.07;;
14167;SDS011;7163;50.626;12.922;2022-11-20T20:08:16;46.33;;;22.77;;
14167;SDS011;7163;50.626;12.922;2022-11-20T20:13:16;32.20;;;16.40;;
14167;SDS011;7163;50.626;12.922;2022-11-20T20:18:17;34.53;;;17.57;;
14167;SDS011;7163;50.626;12.922;2022-11-20T20:23:17;35.63;;;17.47;;
14167;SDS011;7163;50.626;12.922;2022-11-20T20:28:18;31.50;;;15.53;;
14167;SDS011;7163;50.626;12.922;2022-11-20T20:33:20;28.07;;;13.60;;
14167;SDS011;7163;50.626;12.922;2022-11-20T20:38:21;28.47;;;14.27;;
14167;SDS011;7163;50.626;12.922;2022-11-20T20:43:22;28.33;;;14.13;;
14167;SDS011;7163;50.626;12.922;2022-11-20T20:48:23;23.60;;;13.20;;
14167;SDS011;7163;50.626;12.922;2022-11-20T20:53:24;24.63;;;9.83;;
14167;SDS011;7163;50.626;12.922;2022-11-20T20:58:26;20.23;;;10.87;;
14167;SDS011;7163;50.626;12.922;2022-11-20T21:03:27;22.07;;;11.50;;
14167;SDS011;7163;50.626;12.922;2022-11-20T21:08:28;26.63;;;13.40;;
14167;SDS011;7163;50.626;12.922;2022-11-20T21:13:28;21.90;;;11.87;;
14167;SDS011;7163;50.626;12.922;2022-11-20T21:18:30;22.33;;;11.17;;
14167;SDS011;7163;50.626;12.922;2022-11-20T21:23:30;24.43;;;11.93;;
14167;SDS011;7163;50.626;12.922;2022-11-20T21:28:32;22.90;;;13.00;;
14167;SDS011;7163;50.626;12.922;2022-11-20T21:33:43;20.90;;;11.87;;
14167;SDS011;7163;50.626;12.922;2022-11-20T21:38:45;21.00;;;11.83;;
14167;SDS011;7163;50.626;12.922;2022-11-20T21:43:46;22.20;;;12.17;;
14167;SDS011;7163;50.626;12.922;2022-11-20T21:48:46;19.90;;;10.77;;
14167;SDS011;7163;50.626;12.922;2022-11-20T21:53:47;17.63;;;10.40;;
14167;SDS011;7163;50.626;12.922;2022-11-20T21:58:48;21.77;;;10.70;;
14167;SDS011;7163;50.626;12.922;2022-11-20T22:03:51;19.70;;;10.73;;
14167;SDS011;7163;50.626;12.922;2022-11-20T22:08:52;19.57;;;10.53;;
14167;SDS011;7163;50.626;12.922;2022-11-20T22:13:53;20.83;;;10.97;;
14167;SDS011;7163;50.626;12.922;2022-11-20T22:19:15;22.33;;;12.03;;
14167;SDS011;7163;50.626;12.922;2022-11-20T22:24:18;18.80;;;10.40;;
14167;SDS011;7163;50.626;12.922;2022-11-20T22:29:20;20.23;;;10.87;;
14167;SDS011;7163;50.626;12.922;2022-11-20T22:34:21;20.30;;;10.37;;
14167;SDS011;7163;50.626;12.922;2022-11-20T22:39:21;21.70;;;11.30;;
14167;SDS011;7163;50.626;12.922;2022-11-20T22:44:22;23.87;;;13.27;;
14167;SDS011;7163;50.626;12.922;2022-11-20T22:49:22;20.53;;;11.37;;
14167;SDS011;7163;50.626;12.922;2022-11-20T22:54:22;22.03;;;11.80;;
14167;SDS011;7163;50.626;12.922;2022-11-20T22:59:23;21.93;;;12.57;;
14167;SDS011;7163;50.626;12.922;2022-11-20T23:04:23;23.47;;;10.70;;
14167;SDS011;7163;50.626;12.922;2022-11-20T23:09:23;19.93;;;11.30;;
14167;SDS011;7163;50.626;12.922;2022-11-20T23:14:24;20.67;;;12.03;;
14167;SDS011;7163;50.626;12.922;2022-11-20T23:19:24;19.63;;;11.10;;
14167;SDS011;7163;50.626;12.922;2022-11-20T23:24:25;23.27;;;11.70;;
14167;SDS011;7163;50.626;12.922;2022-11-20T23:29:25;19.87;;;10.93;;
14167;SDS011;7163;50.626;12.922;2022-11-20T23:34:25;14.80;;;8.40;;
14167;SDS011;7163;50.626;12.922;2022-11-20T23:39:26;17.70;;;10.37;;
14167;SDS011;7163;50.626;12.922;2022-11-20T23:44:26;14.60;;;8.67;;
14167;SDS011;7163;50.626;12.922;2022-11-20T23:49:27;12.27;;;6.80;;
14167;SDS011;7163;50.626;12.922;2022-11-20T23:54:27;8.80;;;5.67;;
14167;SDS011;7163;50.626;12.922;2022-11-20T23:59:28;10.47;;;6.10;;
